This is the latest recevied weather packets stored in our database for station/object W2MMD-13. If no packets are shown the sender has not sent any weather packets the latest 10 day(s).
| Time | Temp. | Humidity | Pressure | Rain* | Wind** | Luminosity | Snow |
|---|---|---|---|---|---|---|---|
| 1777583319 | 17.78° C | 57% | - | 0 mm | - | - | - |
| 1777582730 | 18.89° C | 55% | - | 0 mm | - | - | - |
| 1777582719 | 18.89° C | 55% | - | 0 mm | - | - | - |
| 1777582119 | 19.44° C | 56% | - | 0 mm | - | - | - |
| 1777581519 | 18.33° C | 57% | - | 0 mm | - | - | - |
| 1777580919 | 18.33° C | 59% | - | 0 mm | - | - | - |
| 1777580331 | 18.89° C | 57% | - | 0 mm | - | - | - |
| 1777580319 | 18.89° C | 57% | - | 0 mm | - | - | - |
| 1777579719 | 18.89° C | 54% | - | 0 mm | - | - | - |
| 1777579119 | 20° C | 54% | - | 0 mm | - | - | - |
| 1777578519 | 18.33° C | 57% | - | 0 mm | - | - | - |
| 1777577919 | 18.33° C | 56% | - | 0 mm | - | - | - |
| 1777577332 | 18.33° C | 57% | - | 0 mm | - | - | - |
| 1777577320 | 18.33° C | 57% | - | 0 mm | - | - | - |
| 1777576720 | 18.89° C | 56% | - | 0 mm | - | - | - |
| 1777575532 | 18.33° C | 59% | - | 0 mm | - | - | - |
| 1777575520 | 18.33° C | 59% | - | 0 mm | - | - | - |
| 1777574920 | 18.33° C | 59% | - | 0 mm | - | - | - |
| 1777574332 | 18.89° C | 58% | - | 0 mm | - | - | - |
| 1777574320 | 18.89° C | 59% | - | 0 mm | - | - | - |
| 1777573720 | 19.44° C | 60% | - | 0 mm | - | - | - |
| 1777573131 | 18.89° C | 61% | - | 0 mm | - | - | - |
| 1777573120 | 18.89° C | 61% | - | 0 mm | - | - | - |
| 1777572533 | 18.89° C | 63% | - | 0 mm | - | - | - |
| 1777572520 | 18.89° C | 63% | - | 0 mm | - | - | - |
* Rain latest hour (hover to see other rain measurements)
** Current wind speed in m/s (hover to see current wind gust speed)